This is the latest recevied weather packets stored in our database for station/object F4FTJ-13. If no packets are shown the sender has not sent any weather packets the latest 10 day(s).
| Time | Temp. | Humidity | Pressure | Rain* | Wind** | Luminosity | Snow |
|---|---|---|---|---|---|---|---|
| 1777824330 | 20.56° C | 72% | 1010.3 hPa | 0 mm | - | - | - |
| 1777822829 | 19.44° C | 73% | 1010.3 hPa | 0 mm | - | - | - |
| 1777822530 | 19.44° C | 73% | 1010.2 hPa | 0 mm | - | - | - |
| 1777821930 | 19.44° C | 78% | 1010.2 hPa | 0 mm | - | - | - |
| 1777821629 | 19.44° C | 77% | 1010.3 hPa | 0 mm | - | - | - |
| 1777820730 | 18.89° C | 83% | 1010.3 hPa | 0 mm | - | - | - |
| 1777819230 | 18.33° C | 88% | 1010.7 hPa | 0 mm | - | - | - |
| 1777818630 | 17.22° C | 95% | 1010.7 hPa | 0 mm | - | - | - |
| 1777818329 | 16.67° C | 95% | 1011.2 hPa | 0 mm | - | - | - |
| 1777816829 | 15.56° C | 96% | 1011.3 hPa | 0.25 mm | - | - | - |
| 1777814429 | 16.11° C | 95% | 1011.6 hPa | 0.25 mm | - | - | - |
| 1777812029 | 17.22° C | 92% | 1011.5 hPa | 0 mm | - | - | - |
| 1777810530 | 16.67° C | 91% | 1011.5 hPa | 0.51 mm | - | - | - |
| 1777807229 | 14.44° C | 99% | 1012.1 hPa | 3.05 mm | - | - | - |
| 1777806029 | 13.33° C | 99% | 1012.1 hPa | 2.03 mm | - | - | - |
| 1777805429 | 13.33° C | 99% | 1012.3 hPa | 1.78 mm | - | - | - |
| 1777805130 | 13.33° C | 98% | 1012 hPa | 1.27 mm | - | - | - |
| 1777803329 | 15° C | 92% | 1012.4 hPa | 0.25 mm | - | - | - |
| 1777801829 | 16.67° C | 93% | 1012.2 hPa | 0 mm | - | - | - |
| 1777800030 | 16.11° C | 94% | 1012.3 hPa | 0 mm | - | - | - |
| 1777798529 | 15.56° C | 97% | 1012.2 hPa | 0 mm | - | - | - |
| 1777795829 | 15.56° C | 96% | 1012.1 hPa | 0 mm | - | - | - |
| 1777792530 | 15° C | 99% | 1011.9 hPa | 0 mm | - | - | - |
| 1777790429 | 13.33° C | 99% | 1012.2 hPa | 0 mm | - | - | - |
| 1777787129 | 13.33° C | 99% | 1011.8 hPa | 0.25 mm | - | - | - |
* Rain latest hour (hover to see other rain measurements)
** Current wind speed in m/s (hover to see current wind gust speed)